Time;durP1;ratioP1;P1;durP2;ratioP2;P2;SDS_P1;SDS_P2;PMS_P1;PMS_P2;Temp;Humidity;BMP_temperature;BMP_pressure;BME280_temperature;BME280_humidity;BME280_pressure;Samples;Min_cycle;Max_cycle;Signal;HPM_P1;HPM_P2
2022/06/22 00:01:21;;;;;;;15.23;6.28;;;21.60;1.00;;;;;;5074843;28;20056;-73
2022/06/22 00:03:51;;;;;;;11.30;5.78;;;21.50;1.00;;;;;;5056806;28;20087;-73
2022/06/22 00:06:27;;;;;;;9.85;5.57;;;21.50;1.00;;;;;;5058090;28;20504;-73
2022/06/22 00:08:54;;;;;;;;;;;21.60;1.00;;;;;;5059306;28;20115;-73
2022/06/22 00:11:21;;;;;;;8.77;5.90;;;21.60;1.00;;;;;;5040331;28;19929;-73
2022/06/22 00:13:54;;;;;;;10.32;5.53;;;21.70;1.00;;;;;;5040496;28;20075;-72
2022/06/22 00:16:26;;;;;;;13.32;6.50;;;21.70;1.00;;;;;;5059212;28;20113;-72
2022/06/22 00:18:55;;;;;;;11.48;5.60;;;21.70;1.00;;;;;;5069064;28;20083;-72
2022/06/22 00:21:26;;;;;;;9.93;5.30;;;21.70;1.00;;;;;;5066930;28;20044;-73
2022/06/22 00:23:57;;;;;;;11.02;6.15;;;21.60;1.00;;;;;;5059751;28;20095;-72
2022/06/22 00:26:32;;;;;;;10.88;5.85;;;21.50;1.00;;;;;;5049573;28;20082;-73
2022/06/22 00:29:23;;;;;;;14.07;5.70;;;21.40;99.90;;;;;;5059017;28;20151;-72
2022/06/22 00:32:03;;;;;;;12.88;5.90;;;21.40;1.00;;;;;;5069059;28;20048;-72
2022/06/22 00:34:32;;;;;;;9.00;5.43;;;21.40;1.00;;;;;;5059394;28;20041;-73
2022/06/22 00:37:02;;;;;;;12.02;5.50;;;21.30;99.90;;;;;;5066484;28;20037;-72
2022/06/22 00:39:38;;;;;;;8.25;5.55;;;21.20;99.90;;;;;;5052273;28;20048;-73
2022/06/22 00:42:24;;;;;;;11.43;6.07;;;21.10;99.90;;;;;;5077652;28;20048;-73
2022/06/22 00:44:59;;;;;;;6.38;5.32;;;21.00;1.00;;;;;;5077096;28;20052;-74
2022/06/22 00:47:31;;;;;;;11.65;5.50;;;20.90;1.00;;;;;;5050011;28;20114;-73
2022/06/22 00:50:03;;;;;;;9.57;5.63;;;20.90;99.90;;;;;;5071629;28;20045;-72
2022/06/22 00:52:37;;;;;;;11.07;5.88;;;20.80;99.90;;;;;;5075781;28;20052;-72
2022/06/22 00:55:16;;;;;;;6.65;5.13;;;20.80;69.50;;;;;;5075816;28;20411;-73
2022/06/22 00:57:50;;;;;;;8.50;5.72;;;20.80;99.90;;;;;;5074721;28;20044;-72
2022/06/22 01:00:22;;;;;;;8.85;5.60;;;20.70;1.00;;;;;;5037537;28;20048;-72
2022/06/22 01:02:55;;;;;;;11.05;5.80;;;20.60;1.00;;;;;;5037597;28;20139;-72
2022/06/22 01:05:28;;;;;;;11.38;5.50;;;20.70;94.40;;;;;;5037657;28;20111;-72
2022/06/22 01:08:09;;;;;;;10.57;5.97;;;20.60;99.90;;;;;;5055603;28;20087;-72
2022/06/22 01:10:44;;;;;;;9.55;5.53;;;20.60;1.00;;;;;;5055098;28;20041;-72
2022/06/22 01:13:18;;;;;;;13.18;5.57;;;20.50;1.00;;;;;;5056224;28;20049;-71
2022/06/22 01:15:52;;;;;;;20.33;6.53;;;20.40;1.00;;;;;;5059738;28;20041;-72
2022/06/22 01:18:26;;;;;;;9.48;6.13;;;20.40;99.90;;;;;;5041569;28;20060;-72
2022/06/22 01:21:01;;;;;;;8.43;5.30;;;20.30;99.90;;;;;;5040629;28;20051;-72
2022/06/22 01:24:02;;;;;;;12.30;6.07;;;20.20;99.90;;;;;;5058465;28;20040;-73
2022/06/22 01:26:50;;;;;;;18.50;11.48;;;20.20;99.90;;;;;;5072371;28;20044;-73
2022/06/22 01:29:21;;;;;;;12.30;7.78;;;20.20;99.90;;;;;;5069607;28;20049;-73
2022/06/22 01:31:57;;;;;;;9.63;6.90;;;20.20;99.90;;;;;;5068545;28;20075;-73
2022/06/22 01:34:29;;;;;;;9.95;5.82;;;20.20;99.90;;;;;;5082168;28;20037;-72
2022/06/22 01:37:01;;;;;;;11.95;8.13;;;20.20;99.90;;;;;;5060516;28;20118;-73
2022/06/22 01:39:29;;;;;;;12.45;5.57;;;20.20;99.90;;;;;;5074508;28;20387;-72
2022/06/22 01:42:01;;;;;;;8.85;5.78;;;20.10;99.90;;;;;;5066625;28;20056;-72
2022/06/22 01:44:37;;;;;;;13.15;5.38;;;20.00;99.90;;;;;;5044590;28;20044;-72
2022/06/22 01:47:19;;;;;;;8.98;5.60;;;20.00;99.90;;;;;;5049256;28;20052;-73
2022/06/22 01:50:07;;;;;;;10.52;5.63;;;20.00;99.90;;;;;;5042647;28;20496;-72
2022/06/22 01:52:46;;;;;;;10.70;5.85;;;19.90;99.90;;;;;;5048039;28;20033;-72
2022/06/22 01:55:22;;;;;;;13.63;6.57;;;19.80;99.90;;;;;;5068474;28;20080;-72
2022/06/22 01:57:57;;;;;;;8.23;5.80;;;19.80;99.90;;;;;;5071973;28;20048;-71
2022/06/22 02:00:26;;;;;;;8.33;6.00;;;19.70;99.90;;;;;;5042339;28;20118;-71
2022/06/22 02:02:59;;;;;;;11.15;5.97;;;19.70;99.90;;;;;;5065336;22;20301;-74
2022/06/22 02:05:31;;;;;;;9.57;5.80;;;19.70;99.90;;;;;;5073581;28;20094;-73
2022/06/22 02:08:04;;;;;;;9.57;5.78;;;19.80;99.90;;;;;;5074318;28;20086;-74
2022/06/22 02:10:42;;;;;;;9.85;5.80;;;19.80;99.90;;;;;;5054341;28;20235;-74
2022/06/22 02:13:22;;;;;;;10.55;5.95;;;19.90;99.90;;;;;;5033953;28;20049;-73
2022/06/22 02:16:04;;;;;;;7.93;5.30;;;19.90;99.90;;;;;;5037916;28;20116;-72
2022/06/22 02:18:38;;;;;;;15.38;6.07;;;19.90;99.90;;;;;;5046177;28;20403;-74
2022/06/22 02:21:19;;;;;;;13.32;5.60;;;19.80;99.90;;;;;;5053436;28;20507;-74
2022/06/22 02:23:51;;;;;;;10.77;5.10;;;19.80;99.90;;;;;;5054020;28;20037;-73
2022/06/22 02:26:23;;;;;;;9.13;5.28;;;19.70;99.90;;;;;;5054578;28;20508;-73
2022/06/22 02:28:51;;;;;;;9.45;5.32;;;19.70;99.90;;;;;;5053946;28;20041;-72
2022/06/22 02:31:22;;;;;;;12.20;5.82;;;19.60;99.90;;;;;;5036029;28;20504;-75
2022/06/22 02:33:52;;;;;;;8.02;5.35;;;19.60;99.90;;;;;;5053389;28;20044;-73
2022/06/22 02:36:20;;;;;;;8.30;5.45;;;19.60;99.90;;;;;;5039090;28;20045;-73
2022/06/22 02:38:50;;;;;;;11.35;5.82;;;19.60;99.90;;;;;;5054118;28;20114;-73
2022/06/22 02:46:48;;;;;;;10.73;5.75;;;19.50;99.90;;;;;;5024210;28;20355;-74
2022/06/22 02:49:24;;;;;;;10.18;5.57;;;19.50;99.90;;;;;;5054681;28;20041;-72
2022/06/22 02:51:52;;;;;;;9.23;5.85;;;19.60;99.90;;;;;;5052715;28;20072;-72
2022/06/22 02:54:27;;;;;;;13.48;5.72;;;19.50;99.90;;;;;;5071437;28;20044;-73
2022/06/22 02:57:10;;;;;;;8.00;5.75;;;19.50;99.90;;;;;;5073882;28;20055;-73
2022/06/22 02:59:38;;;;;;;8.40;5.55;;;19.40;99.90;;;;;;5061730;28;20102;-73
2022/06/22 03:02:07;;;;;;;12.50;5.85;;;19.50;99.90;;;;;;5059287;28;20049;-73
2022/06/22 03:04:35;;;;;;;10.77;5.25;;;19.40;99.90;;;;;;5057437;28;20100;-73
2022/06/22 03:07:03;;;;;;;10.80;5.57;;;19.40;99.90;;;;;;5057281;28;20069;-73
2022/06/22 03:09:30;;;;;;;7.65;5.32;;;19.40;99.90;;;;;;5056717;28;20107;-73
2022/06/22 03:12:00;;;;;;;10.13;5.00;;;19.30;99.90;;;;;;5056604;28;20041;-74
2022/06/22 03:14:31;;;;;;;12.02;5.07;;;19.30;99.90;;;;;;5056174;28;20033;-74
2022/06/22 03:17:02;;;;;;;9.15;5.30;;;19.40;99.90;;;;;;5056083;28;20049;-74
2022/06/22 03:19:39;;;;;;;11.70;5.78;;;19.50;99.90;;;;;;5055015;28;20041;-73
2022/06/22 03:22:07;;;;;;;9.75;5.32;;;19.50;99.90;;;;;;5054353;28;20090;-72
2022/06/22 03:24:41;;;;;;;10.38;6.10;;;19.60;99.90;;;;;;5056791;28;20495;-73
2022/06/22 03:27:18;;;;;;;7.72;6.03;;;19.70;99.90;;;;;;5061347;28;20055;-73
2022/06/22 03:29:50;;;;;;;14.77;6.25;;;19.70;99.90;;;;;;5081963;28;20476;-73
2022/06/22 03:32:25;;;;;;;8.00;5.30;;;19.80;99.90;;;;;;5081851;28;20067;-73
2022/06/22 03:35:00;;;;;;;10.73;4.95;;;19.80;99.90;;;;;;5077468;28;20116;-74
2022/06/22 03:37:33;;;;;;;9.53;5.13;;;19.70;99.90;;;;;;5057068;28;20453;-74
2022/06/22 03:40:08;;;;;;;10.00;5.20;;;19.80;99.90;;;;;;5057970;28;20289;-73
2022/06/22 03:42:39;;;;;;;10.80;4.30;;;19.80;99.90;;;;;;5056738;28;20068;-72
2022/06/22 03:45:11;;;;;;;11.30;5.03;;;19.90;99.90;;;;;;5056495;28;20530;-72
2022/06/22 03:47:45;;;;;;;8.32;4.82;;;20.00;99.90;;;;;;5036697;28;20045;-74
2022/06/22 03:50:19;;;;;;;7.63;4.80;;;20.10;99.90;;;;;;5038880;28;20044;-75
2022/06/22 03:52:52;;;;;;;10.48;4.68;;;20.10;99.90;;;;;;5056125;28;20037;-73
2022/06/22 03:55:23;;;;;;;10.30;5.00;;;20.20;99.90;;;;;;5038891;28;20094;-73
2022/06/22 03:57:53;;;;;;;15.27;5.65;;;20.40;99.90;;;;;;5057146;28;20108;-74
2022/06/22 04:00:21;;;;;;;10.27;5.10;;;20.60;99.90;;;;;;5056573;28;20103;-73
2022/06/22 04:02:50;;;;;;;9.48;5.03;;;20.90;99.90;;;;;;5053514;28;20064;-73
2022/06/22 04:05:22;;;;;;;13.38;4.95;;;21.40;99.90;;;;;;5056180;28;20120;-71
2022/06/22 04:07:51;;;;;;;8.38;4.70;;;21.80;99.90;;;;;;5055627;28;20045;-74
2022/06/22 04:10:34;;;;;;;8.85;4.63;;;22.20;99.90;;;;;;5038079;28;20049;-73
2022/06/22 04:13:03;;;;;;;12.07;5.43;;;22.40;99.90;;;;;;5055893;28;20489;-74
2022/06/22 04:15:38;;;;;;;7.40;4.50;;;22.60;99.90;;;;;;5056051;28;20045;-75
2022/06/22 04:18:12;;;;;;;8.40;4.82;;;22.70;99.90;;;;;;5052764;28;20102;-73
2022/06/22 04:20:54;;;;;;;8.75;4.50;;;22.90;99.90;;;;;;5037815;28;20087;-73
2022/06/22 04:23:32;;;;;;;7.15;4.30;;;23.00;99.90;;;;;;5056204;28;20079;-74
2022/06/22 04:26:05;;;;;;;7.80;4.82;;;23.40;99.90;;;;;;5056060;28;20045;-75
2022/06/22 04:28:35;;;;;;;8.65;4.03;;;23.60;99.90;;;;;;5055300;28;20041;-74
2022/06/22 04:31:05;;;;;;;10.40;5.22;;;24.10;99.90;;;;;;5055658;28;20032;-74
2022/06/22 04:33:37;;;;;;;16.38;4.68;;;24.60;99.90;;;;;;5035274;28;20120;-74
2022/06/22 04:36:11;;;;;;;11.38;5.10;;;25.30;99.90;;;;;;5041531;28;20128;-73
2022/06/22 04:38:43;;;;;;;8.18;4.50;;;25.80;99.90;;;;;;5048277;28;20064;-73
2022/06/22 04:41:25;;;;;;;5.25;4.18;;;25.90;99.90;;;;;;5037776;28;20095;-74
2022/06/22 04:43:54;;;;;;;5.78;4.25;;;26.10;99.90;;;;;;5054756;28;20099;-73
2022/06/22 04:46:24;;;;;;;11.05;4.72;;;26.20;99.90;;;;;;5055080;28;20037;-75
2022/06/22 04:48:53;;;;;;;9.93;4.82;;;26.10;99.90;;;;;;5055727;28;20127;-74
2022/06/22 04:51:25;;;;;;;11.43;4.60;;;26.20;99.90;;;;;;5055242;28;20451;-74
2022/06/22 04:53:57;;;;;;;8.65;4.22;;;26.30;99.90;;;;;;5055187;28;20528;-74
2022/06/22 04:56:32;;;;;;;11.80;6.15;;;25.80;99.90;;;;;;5055125;28;20557;-74
2022/06/22 04:59:01;;;;;;;9.85;4.90;;;25.40;99.90;;;;;;5055773;28;20045;-74
2022/06/22 05:01:32;;;;;;;13.88;4.82;;;24.70;99.90;;;;;;5054627;28;20373;-75
2022/06/22 05:04:05;;;;;;;10.02;4.50;;;24.10;99.90;;;;;;5055036;28;20504;-74
2022/06/22 05:06:40;;;;;;;12.90;4.50;;;23.60;99.90;;;;;;5047537;28;20097;-75
2022/06/22 05:09:13;;;;;;;7.45;4.10;;;23.10;99.90;;;;;;5037329;28;20523;-74
2022/06/22 05:11:44;;;;;;;9.52;3.63;;;22.60;99.90;;;;;;5054923;28;20528;-74
2022/06/22 05:14:21;;;;;;;11.70;4.40;;;22.30;99.90;;;;;;5053519;28;21283;-74
2022/06/22 05:16:54;;;;;;;13.73;5.88;;;22.00;99.90;;;;;;5035871;28;20041;-74
2022/06/22 05:19:27;;;;;;;17.20;8.73;;;22.10;99.90;;;;;;5055765;28;20041;-74
2022/06/22 05:21:59;;;;;;;9.48;5.15;;;22.80;99.90;;;;;;5053928;28;20095;-72
2022/06/22 05:24:35;;;;;;;11.20;4.25;;;23.80;99.90;;;;;;5049694;28;20146;-74
2022/06/22 05:27:08;;;;;;;9.35;3.63;;;24.60;99.90;;;;;;5051561;28;20040;-73
2022/06/22 05:29:39;;;;;;;7.15;3.97;;;24.50;99.90;;;;;;5051659;28;20381;-74
2022/06/22 05:32:13;;;;;;;7.60;3.53;;;24.20;99.90;;;;;;5059213;28;20087;-75
2022/06/22 05:34:43;;;;;;;13.27;4.72;;;24.70;99.90;;;;;;5054838;28;20072;-75
2022/06/22 05:37:17;;;;;;;8.50;3.90;;;25.70;99.90;;;;;;5056906;28;20106;-75
2022/06/22 05:39:44;;;;;;;8.60;4.65;;;25.90;99.90;;;;;;5050415;28;20072;-74
2022/06/22 05:42:14;;;;;;;9.13;4.15;;;26.00;99.90;;;;;;5052741;28;20047;-75
2022/06/22 05:44:42;;;;;;;11.43;3.92;;;25.90;99.90;;;;;;5068671;28;20045;-74
2022/06/22 05:47:17;;;;;;;8.43;4.10;;;25.60;99.90;;;;;;5075914;28;20108;-74
2022/06/22 05:49:49;;;;;;;7.23;3.83;;;25.30;99.90;;;;;;5074723;28;20059;-74
2022/06/22 05:52:24;;;;;;;11.40;4.53;;;25.10;99.90;;;;;;5059880;28;20336;-74
2022/06/22 05:54:56;;;;;;;10.02;3.30;;;24.70;99.90;;;;;;5055889;28;20053;-76
2022/06/22 05:57:35;;;;;;;6.80;3.25;;;24.60;99.90;;;;;;5055998;28;20056;-74
2022/06/22 06:00:11;;;;;;;9.00;3.38;;;24.60;99.90;;;;;;5058551;28;20043;-75
2022/06/22 06:02:45;;;;;;;7.85;3.63;;;24.90;99.90;;;;;;5059800;28;20044;-73
2022/06/22 06:05:22;;;;;;;8.85;3.25;;;25.20;99.90;;;;;;5037455;28;20033;-73
2022/06/22 06:07:53;;;;;;;8.40;2.90;;;25.20;99.90;;;;;;5053528;28;20033;-76
2022/06/22 06:10:24;;;;;;;13.63;3.15;;;25.30;99.90;;;;;;5053622;28;20112;-72
2022/06/22 06:12:57;;;;;;;14.77;5.00;;;25.20;99.90;;;;;;5036707;28;20095;-74
2022/06/22 06:15:29;;;;;;;23.80;5.38;;;25.30;99.90;;;;;;5054544;28;20095;-75
2022/06/22 06:17:58;;;;;;;9.75;6.38;;;25.10;99.90;;;;;;5054588;28;20040;-74
2022/06/22 06:20:29;;;;;;;16.25;6.85;;;25.20;99.90;;;;;;5054397;28;20398;-73
2022/06/22 06:23:02;;;;;;;11.15;4.75;;;25.20;99.90;;;;;;5053484;28;20551;-74
2022/06/22 06:28:27;;;;;;;7.25;3.03;;;25.10;99.90;;;;;;5052772;28;20051;-74
2022/06/22 06:31:11;;;;;;;10.75;3.42;;;25.10;99.90;;;;;;5051922;28;20118;-74
2022/06/22 06:33:40;;;;;;;12.63;4.30;;;25.00;99.90;;;;;;5046920;28;20059;-73
2022/06/22 06:36:16;;;;;;;13.13;7.82;;;24.90;99.90;;;;;;5069852;28;20029;-74
2022/06/22 06:38:48;;;;;;;;;;;24.70;99.90;;;;;;5053792;28;20102;-74
2022/06/22 06:41:22;;;;;;;18.20;11.02;;;24.60;99.90;;;;;;5054104;28;20430;-73
2022/06/22 06:43:53;;;;;;;9.27;4.20;;;24.70;99.90;;;;;;5054025;28;20079;-74
2022/06/22 06:46:23;;;;;;;9.30;4.82;;;24.90;99.90;;;;;;5065513;28;20068;-75
2022/06/22 06:48:55;;;;;;;7.35;3.55;;;25.20;99.90;;;;;;5055400;28;20045;-75
2022/06/22 06:51:25;;;;;;;9.45;5.45;;;25.30;99.90;;;;;;5064366;28;20056;-75
2022/06/22 06:54:02;;;;;;;10.27;4.00;;;25.20;99.90;;;;;;5054642;28;20045;-75
2022/06/22 06:56:34;;;;;;;9.93;2.83;;;25.20;99.90;;;;;;5058218;28;20057;-75
2022/06/22 06:59:05;;;;;;;14.57;4.20;;;25.20;99.90;;;;;;5061268;28;20048;-75
2022/06/22 07:01:37;;;;;;;11.52;3.42;;;25.20;99.90;;;;;;5044293;28;20412;-75
2022/06/22 07:04:09;;;;;;;11.68;4.32;;;25.30;99.90;;;;;;5048855;28;20053;-73
2022/06/22 07:06:38;;;;;;;6.35;2.95;;;25.60;99.90;;;;;;5062460;28;20037;-75
2022/06/22 07:09:15;;;;;;;8.27;3.00;;;26.10;99.90;;;;;;5066273;28;20045;-74
2022/06/22 07:11:48;;;;;;;7.70;3.30;;;26.50;99.90;;;;;;5058894;28;20069;-75
2022/06/22 07:14:21;;;;;;;5.82;2.72;;;26.70;99.90;;;;;;5059787;28;20040;-75
2022/06/22 07:16:49;;;;;;;8.80;2.92;;;26.60;99.90;;;;;;5057053;28;20049;-74
2022/06/22 07:19:20;;;;;;;6.30;4.13;;;26.50;99.90;;;;;;5055122;28;20678;-76
2022/06/22 07:21:53;;;;;;;11.55;8.13;;;26.30;99.90;;;;;;5056911;28;20098;-75
2022/06/22 07:24:27;;;;;;;6.47;3.10;;;26.40;99.90;;;;;;5058580;28;20127;-76
2022/06/22 07:27:00;;;;;;;11.13;4.18;;;26.30;99.90;;;;;;5056757;28;20532;-75
2022/06/22 07:29:36;;;;;;;7.13;3.40;;;26.50;99.90;;;;;;5057895;28;20121;-74
2022/06/22 07:32:13;;;;;;;11.00;4.00;;;26.80;99.90;;;;;;5055928;28;20037;-74
2022/06/22 07:34:46;;;;;;;6.65;2.78;;;27.20;99.90;;;;;;5056121;28;20033;-74
2022/06/22 07:37:21;;;;;;;12.98;3.63;;;27.10;99.90;;;;;;5055837;28;20132;-77
2022/06/22 07:39:56;;;;;;;9.18;4.18;;;26.70;99.90;;;;;;5039776;28;20101;-75
2022/06/22 07:42:24;;;;;;;;;;;26.50;99.90;;;;;;5054698;28;20103;-76
2022/06/22 07:44:51;;;;;;;10.65;4.30;;;26.50;99.90;;;;;;5047218;28;19927;-74
2022/06/22 07:47:27;;;;;;;6.75;3.58;;;26.60;99.90;;;;;;5037536;28;20041;-75
2022/06/22 07:49:58;;;;;;;6.32;3.40;;;27.00;99.90;;;;;;5038525;28;20053;-74
2022/06/22 07:52:32;;;;;;;9.57;3.80;;;27.20;99.90;;;;;;5051885;28;20041;-74
2022/06/22 07:55:06;;;;;;;9.50;4.28;;;27.30;99.90;;;;;;5038272;28;20136;-74
2022/06/22 07:57:40;;;;;;;10.18;4.00;;;27.20;99.90;;;;;;5057941;28;20037;-75
2022/06/22 08:00:13;;;;;;;9.20;3.65;;;27.40;99.90;;;;;;5059715;28;20072;-74
2022/06/22 08:02:48;;;;;;;8.52;3.22;;;27.90;99.90;;;;;;5056713;28;20432;-74
2022/06/22 08:05:20;;;;;;;7.03;2.72;;;27.90;99.90;;;;;;5056554;28;20072;-74
2022/06/22 08:07:58;;;;;;;6.25;3.63;;;28.10;99.90;;;;;;5055782;28;20103;-73
2022/06/22 08:10:38;;;;;;;5.80;3.20;;;28.50;99.90;;;;;;5056543;28;20126;-74
2022/06/22 08:13:13;;;;;;;7.45;3.78;;;28.60;98.60;;;;;;5056271;28;20653;-74
2022/06/22 08:15:47;;;;;;;6.55;3.20;;;28.40;99.20;;;;;;5056614;28;20400;-73
2022/06/22 08:18:15;;;;;;;9.00;3.72;;;28.30;99.30;;;;;;5056588;28;20040;-74
2022/06/22 08:20:45;;;;;;;8.80;5.85;;;28.20;99.60;;;;;;5056853;28;20049;-74
2022/06/22 08:23:19;;;;;;;7.85;3.83;;;28.30;99.90;;;;;;5056950;28;20194;-74
2022/06/22 08:25:50;;;;;;;11.25;3.78;;;28.20;99.90;;;;;;5044353;28;20045;-75
2022/06/22 08:28:22;;;;;;;8.40;3.97;;;28.20;99.90;;;;;;5057857;28;20048;-75
2022/06/22 08:30:53;;;;;;;10.52;3.92;;;28.40;99.90;;;;;;5056154;28;20045;-74
2022/06/22 08:33:23;;;;;;;8.00;3.78;;;28.90;99.00;;;;;;5055827;28;20041;-74
2022/06/22 08:35:55;;;;;;;13.18;4.32;;;29.10;97.20;;;;;;5055989;28;20043;-73
2022/06/22 08:38:29;;;;;;;8.38;4.00;;;29.00;97.80;;;;;;5055910;28;20071;-74
2022/06/22 08:41:10;;;;;;;8.63;4.00;;;28.70;99.10;;;;;;5055237;28;20037;-74
2022/06/22 08:43:44;;;;;;;8.80;5.20;;;28.50;99.90;;;;;;5055206;28;20086;-74
2022/06/22 08:46:45;;;;;;;9.77;5.00;;;28.40;99.90;;;;;;5055787;28;20067;-74
2022/06/22 08:49:31;;;;;;;8.30;4.10;;;28.30;99.90;;;;;;5050897;28;20392;-74
2022/06/22 08:52:13;;;;;;;9.98;4.38;;;28.60;99.90;;;;;;5055285;28;20067;-74
2022/06/22 08:55:06;;;;;;;14.43;5.03;;;29.00;99.90;;;;;;5055398;28;20076;-73
2022/06/22 08:57:50;;;;;;;9.32;4.78;;;29.30;99.90;;;;;;5055521;28;20472;-74
2022/06/22 09:00:23;;;;;;;9.32;4.68;;;29.20;99.90;;;;;;5056409;28;20064;-74
2022/06/22 09:03:23;;;;;;;10.95;4.38;;;29.00;99.90;;;;;;5036798;28;20068;-74
2022/06/22 09:06:09;;;;;;;8.32;4.45;;;28.70;99.90;;;;;;5055506;28;20118;-73
2022/06/22 09:09:21;;;;;;;11.05;5.68;;;28.30;99.90;;;;;;5037213;28;20106;-74
2022/06/22 09:12:02;;;;;;;13.38;5.18;;;28.60;99.90;;;;;;5019358;28;20052;-75
2022/06/22 09:15:03;;;;;;;14.68;5.55;;;28.70;99.90;;;;;;5055294;28;20044;-74
2022/06/22 09:18:03;;;;;;;14.27;5.32;;;29.00;99.70;;;;;;5043620;28;20400;-74
2022/06/22 09:20:55;;;;;;;8.27;5.20;;;29.20;98.90;;;;;;5049511;28;20481;-74
2022/06/22 09:23:32;;;;;;;11.55;6.68;;;29.00;99.90;;;;;;5054817;28;20132;-74
2022/06/22 09:26:11;;;;;;;12.82;5.80;;;29.20;99.90;;;;;;5055301;28;20107;-73
2022/06/22 09:28:46;;;;;;;12.73;5.00;;;29.00;99.60;;;;;;5054928;28;20045;-74
2022/06/22 09:31:31;;;;;;;11.40;5.30;;;28.70;99.80;;;;;;5055240;28;20537;-74
2022/06/22 09:34:12;;;;;;;8.48;5.28;;;29.00;99.90;;;;;;5055020;28;20098;-74
2022/06/22 09:37:00;;;;;;;13.32;7.18;;;29.10;99.90;;;;;;5056264;28;20067;-74
2022/06/22 09:40:14;;;;;;;13.45;7.18;;;29.40;99.90;;;;;;5055197;28;20109;-74
2022/06/22 09:43:27;;;;;;;17.60;6.70;;;29.20;99.90;;;;;;5054826;28;20100;-74
2022/06/22 09:46:10;;;;;;;12.85;6.25;;;29.30;99.90;;;;;;5007650;28;20083;-74
2022/06/22 09:49:21;;;;;;;10.07;5.72;;;29.80;99.80;;;;;;5055294;28;20163;-74
2022/06/22 09:52:06;;;;;;;13.38;6.70;;;30.60;98.90;;;;;;5039947;28;20053;-74
2022/06/22 09:58:00;;;;;;;14.57;7.05;;;31.00;98.30;;;;;;5054375;28;20040;-74
2022/06/22 10:00:34;;;;;;;11.63;5.90;;;30.90;97.90;;;;;;5054385;28;20053;-74
2022/06/22 10:03:44;;;;;;;10.73;5.47;;;30.50;97.90;;;;;;5054882;28;20056;-74
2022/06/22 10:06:40;;;;;;;11.77;6.50;;;29.70;99.00;;;;;;5054370;28;20041;-74
2022/06/22 10:09:30;;;;;;;12.30;5.88;;;29.10;99.70;;;;;;5055126;28;20045;-74
2022/06/22 10:12:13;;;;;;;12.32;6.30;;;28.80;99.90;;;;;;5054114;28;20045;-74
2022/06/22 10:15:05;;;;;;;12.20;7.15;;;28.80;99.90;;;;;;5054917;28;20045;-75
2022/06/22 10:17:57;;;;;;;11.25;7.90;;;29.30;99.90;;;;;;5055180;28;20049;-75
2022/06/22 10:20:42;;;;;;;12.32;8.45;;;29.20;99.90;;;;;;5055334;28;20052;-74
2022/06/22 10:23:28;;;;;;;12.35;7.35;;;29.10;99.90;;;;;;5037717;28;20512;-73
2022/06/22 10:26:18;;;;;;;9.82;7.30;;;28.50;99.90;;;;;;5055065;28;20075;-74
2022/06/22 10:29:11;;;;;;;12.88;7.63;;;28.60;99.90;;;;;;5054481;28;20091;-74
2022/06/22 10:31:51;;;;;;;12.85;8.45;;;28.70;99.90;;;;;;5054907;28;20484;-75
2022/06/22 10:34:38;;;;;;;17.83;9.80;;;28.50;99.90;;;;;;5054899;28;20099;-74
2022/06/22 10:37:27;;;;;;;14.75;9.65;;;28.40;99.90;;;;;;5055367;28;20049;-74
2022/06/22 10:46:00;;;;;;;15.00;11.13;;;28.60;99.90;;;;;;5061516;28;20045;-74
2022/06/22 10:48:54;;;;;;;13.65;10.05;;;28.50;99.90;;;;;;5053612;28;20029;-74
2022/06/22 10:51:37;;;;;;;14.98;10.10;;;28.60;99.90;;;;;;5054820;28;20044;-74
2022/06/22 10:54:22;;;;;;;17.60;9.82;;;28.60;99.90;;;;;;5055322;28;20079;-73
2022/06/22 10:57:19;;;;;;;17.90;9.52;;;28.50;99.90;;;;;;5047295;28;20068;-74
2022/06/22 11:00:04;;;;;;;12.38;8.88;;;28.40;99.90;;;;;;5024735;28;20109;-74
2022/06/22 11:03:09;;;;;;;12.02;9.00;;;28.40;99.90;;;;;;5069437;28;20056;-75
2022/06/22 11:06:08;;;;;;;14.77;9.15;;;28.40;99.90;;;;;;5062703;28;20396;-74
2022/06/22 11:08:53;;;;;;;17.95;14.48;;;28.80;99.90;;;;;;5050412;28;20041;-74
2022/06/22 11:11:32;;;;;;;12.38;9.77;;;29.10;99.90;;;;;;5054406;28;20091;-74
2022/06/22 11:14:41;;;;;;;16.75;10.57;;;29.20;99.90;;;;;;5049412;28;20040;-74
2022/06/22 11:17:32;;;;;;;16.00;12.00;;;29.40;99.90;;;;;;5045922;28;20033;-74
2022/06/22 11:20:18;;;;;;;15.15;11.05;;;29.40;99.90;;;;;;5050752;28;20041;-74
2022/06/22 11:22:49;;;;;;;10.90;9.10;;;29.50;99.90;;;;;;5053110;28;20098;-74
2022/06/22 11:31:59;;;;;;;14.55;9.52;;;30.10;99.90;;;;;;5066453;28;20146;-75
2022/06/22 11:35:11;;;;;;;12.55;9.32;;;30.10;99.90;;;;;;5020430;28;20135;-74
2022/06/22 11:37:55;;;;;;;15.23;8.30;;;30.30;99.90;;;;;;5043329;28;20509;-75
2022/06/22 11:40:39;;;;;;;14.57;8.43;;;30.20;99.90;;;;;;5049105;28;20037;-75
2022/06/22 11:43:29;;;;;;;12.55;8.95;;;29.80;99.90;;;;;;5054841;28;20524;-75
2022/06/22 11:46:05;;;;;;;13.55;9.25;;;29.70;99.90;;;;;;5032515;28;20076;-74
2022/06/22 11:49:03;;;;;;;12.90;7.50;;;29.70;99.90;;;;;;5051400;28;20484;-74
2022/06/22 11:51:52;;;;;;;14.38;10.02;;;29.60;99.90;;;;;;5056284;28;20080;-75
2022/06/22 11:54:39;;;;;;;12.55;6.88;;;29.70;99.90;;;;;;5056737;28;20033;-75
2022/06/22 11:57:33;;;;;;;11.82;6.93;;;29.60;99.90;;;;;;5054408;28;20068;-74
2022/06/22 12:00:11;;;;;;;12.93;8.90;;;29.20;99.90;;;;;;5054278;28;20094;-75
2022/06/22 12:03:18;;;;;;;9.63;6.28;;;29.30;99.90;;;;;;5048811;28;20479;-74
2022/06/22 12:06:12;;;;;;;17.35;12.55;;;29.10;99.90;;;;;;5055950;28;20403;-75
2022/06/22 12:09:08;;;;;;;9.52;6.68;;;29.20;99.90;;;;;;5054464;28;20033;-75
2022/06/22 12:11:50;;;;;;;12.55;6.72;;;29.40;99.90;;;;;;5037620;28;20504;-75
2022/06/22 12:17:24;;;;;;;13.85;7.32;;;29.30;99.90;;;;;;5056003;28;20111;-74
2022/06/22 12:19:56;;;;;;;13.57;6.25;;;29.30;99.90;;;;;;5056375;28;20060;-73
2022/06/22 12:22:32;;;;;;;11.52;7.22;;;29.20;99.90;;;;;;5039009;28;20045;-74
2022/06/22 12:25:23;;;;;;;12.93;7.65;;;29.10;99.90;;;;;;5056412;28;20103;-74
2022/06/22 12:28:02;;;;;;;11.73;8.20;;;29.10;99.90;;;;;;5056137;28;20060;-73
2022/06/22 12:30:48;;;;;;;11.25;6.80;;;29.20;99.90;;;;;;5056417;28;20476;-74
2022/06/22 12:33:21;;;;;;;10.20;6.38;;;29.50;99.90;;;;;;5056352;28;20084;-75
2022/06/22 12:35:56;;;;;;;12.02;8.95;;;29.20;99.90;;;;;;5056448;28;20045;-74
2022/06/22 12:38:27;;;;;;;10.50;6.32;;;29.30;99.90;;;;;;5057148;28;20142;-74
2022/06/22 12:41:02;;;;;;;17.65;7.03;;;29.40;99.90;;;;;;5057211;28;20056;-73
2022/06/22 12:43:58;;;;;;;10.38;6.90;;;29.40;99.90;;;;;;5056574;28;20087;-74
2022/06/22 12:46:48;;;;;;;11.60;6.53;;;29.20;99.90;;;;;;5056358;28;20488;-74
2022/06/22 12:49:41;;;;;;;9.70;6.80;;;29.10;99.90;;;;;;5056171;28;20107;-73
2022/06/22 12:52:15;;;;;;;8.30;6.40;;;29.10;99.90;;;;;;5055858;28;20049;-74
2022/06/22 12:54:46;;;;;;;12.02;6.82;;;29.20;99.90;;;;;;5054432;28;20041;-74
2022/06/22 12:57:17;;;;;;;13.15;6.95;;;29.20;99.90;;;;;;5054990;28;20112;-74
2022/06/22 12:59:51;;;;;;;10.20;6.97;;;29.30;99.90;;;;;;5056607;28;20098;-75
2022/06/22 13:02:24;;;;;;;9.82;7.70;;;29.80;99.90;;;;;;5059449;28;20060;-75
2022/06/22 13:04:56;;;;;;;10.68;6.78;;;30.20;99.90;;;;;;5077102;28;20075;-75
2022/06/22 13:07:23;;;;;;;11.88;7.40;;;30.40;99.90;;;;;;5076928;28;20037;-74
2022/06/22 13:09:51;;;;;;;8.65;6.38;;;30.30;99.90;;;;;;5077131;28;20044;-74
2022/06/22 13:12:23;;;;;;;9.38;7.15;;;29.90;99.90;;;;;;5076230;28;20047;-75
2022/06/22 13:14:58;;;;;;;11.27;6.47;;;30.10;99.90;;;;;;5076549;28;20041;-75
2022/06/22 13:17:30;;;;;;;19.77;7.07;;;29.80;99.90;;;;;;5075764;28;20041;-74
2022/06/22 13:20:32;;;;;;;15.40;7.57;;;30.10;99.90;;;;;;5076008;28;20076;-74
2022/06/22 13:23:05;;;;;;;9.82;6.10;;;30.40;99.90;;;;;;5075624;28;20044;-75
2022/06/22 13:25:39;;;;;;;14.30;7.45;;;30.50;99.90;;;;;;5076107;28;20477;-75
2022/06/22 13:28:16;;;;;;;18.42;7.25;;;30.60;99.90;;;;;;5069744;28;20033;-75
2022/06/22 13:30:50;;;;;;;10.68;6.50;;;30.90;99.90;;;;;;5052952;28;20476;-74
2022/06/22 13:33:23;;;;;;;8.63;6.43;;;31.20;99.90;;;;;;5055352;28;20098;-75
2022/06/22 13:35:55;;;;;;;10.15;6.18;;;31.40;99.90;;;;;;5054460;28;20040;-74
2022/06/22 13:38:35;;;;;;;11.23;5.72;;;31.50;99.90;;;;;;5054355;28;20049;-74
2022/06/22 13:41:19;;;;;;;11.25;6.00;;;31.40;99.90;;;;;;5053503;28;20041;-75
2022/06/22 13:44:00;;;;;;;12.60;6.25;;;31.60;99.90;;;;;;5054036;28;20041;-76
2022/06/22 13:46:47;;;;;;;9.68;5.97;;;31.80;99.90;;;;;;5054604;28;20052;-74
2022/06/22 13:49:21;;;;;;;13.98;6.82;;;31.90;99.90;;;;;;5054718;28;20041;-74
2022/06/22 13:52:12;;;;;;;11.52;6.50;;;32.00;99.90;;;;;;5035711;28;20496;-75
2022/06/22 13:55:07;;;;;;;11.63;5.40;;;31.70;99.90;;;;;;5050076;28;20041;-74
2022/06/22 13:57:42;;;;;;;10.73;6.43;;;31.50;99.90;;;;;;5054028;28;20079;-74
2022/06/22 14:00:14;;;;;;;11.95;6.35;;;31.50;99.90;;;;;;5053615;28;20064;-74
2022/06/22 14:03:00;;;;;;;13.20;7.65;;;31.40;99.90;;;;;;5105830;22;20048;-76